createdAt,value
2018-05-21T00:02:06.674Z,49.00
2018-05-21T00:04:34.891Z,49.10
2018-05-21T00:07:03.107Z,49.00
2018-05-21T00:09:31.367Z,49.00
2018-05-21T00:11:59.591Z,49.00
2018-05-21T00:14:27.877Z,49.00
2018-05-21T00:16:56.072Z,49.00
2018-05-21T00:19:24.438Z,49.00
2018-05-21T00:21:52.637Z,49.00
2018-05-21T00:24:20.846Z,48.90
2018-05-21T00:26:49.091Z,48.30
2018-05-21T00:29:18.072Z,49.00
2018-05-21T00:31:46.305Z,48.90
2018-05-21T00:34:14.494Z,48.90
2018-05-21T00:36:42.747Z,48.90
2018-05-21T00:39:10.970Z,48.90
2018-05-21T00:41:39.174Z,48.80
2018-05-21T00:44:07.437Z,48.70
2018-05-21T00:46:36.435Z,48.80
2018-05-21T00:49:05.388Z,48.80
2018-05-21T00:51:33.596Z,48.70
2018-05-21T00:54:01.795Z,48.70
2018-05-21T00:56:30.098Z,48.70
2018-05-21T00:58:58.347Z,48.80
2018-05-21T01:01:26.549Z,48.70
2018-05-21T01:03:54.763Z,48.70
2018-05-21T01:06:23.723Z,48.70
2018-05-21T01:08:51.928Z,48.70
2018-05-21T01:11:20.923Z,48.60
2018-05-21T01:13:49.176Z,48.60
2018-05-21T01:16:17.393Z,48.60
2018-05-21T01:18:45.597Z,48.60
2018-05-21T01:21:13.799Z,48.70
2018-05-21T01:23:41.998Z,48.60
2018-05-21T01:26:10.202Z,48.60
2018-05-21T01:28:38.422Z,48.70
2018-05-21T01:31:06.626Z,48.70
2018-05-21T01:33:34.902Z,48.60
2018-05-21T01:36:03.100Z,48.60
2018-05-21T01:38:31.303Z,48.70
2018-05-21T01:40:59.510Z,48.60
2018-05-21T01:43:27.730Z,48.60
2018-05-21T01:45:55.938Z,48.50
2018-05-21T01:48:24.157Z,48.50
2018-05-21T01:50:52.394Z,48.50
2018-05-21T01:53:20.567Z,48.40
2018-05-21T01:55:49.527Z,48.30
2018-05-21T01:58:17.723Z,48.30
2018-05-21T02:00:45.924Z,49.00
2018-05-21T02:03:14.132Z,48.40
2018-05-21T02:05:42.337Z,48.50
2018-05-21T02:08:10.558Z,48.50
2018-05-21T02:10:38.763Z,48.20
2018-05-21T02:13:06.963Z,48.40
2018-05-21T02:15:35.178Z,48.50
2018-05-21T02:18:03.395Z,48.50
2018-05-21T02:20:31.607Z,48.50
2018-05-21T02:22:59.808Z,48.40
2018-05-21T02:25:28.027Z,48.40
2018-05-21T02:27:56.211Z,48.40
2018-05-21T02:30:25.219Z,48.50
2018-05-21T02:32:53.410Z,48.40
2018-05-21T02:35:21.611Z,48.40
2018-05-21T02:37:49.819Z,48.30
2018-05-21T02:40:18.791Z,48.40
2018-05-21T02:42:47.022Z,48.30
2018-05-21T02:45:15.250Z,48.40
2018-05-21T02:47:43.443Z,48.30
2018-05-21T02:50:11.638Z,48.30
2018-05-21T02:52:48.676Z,48.30
2018-05-21T02:55:16.887Z,48.20
2018-05-21T02:57:45.083Z,48.30
2018-05-21T03:00:13.298Z,48.30
2018-05-21T03:02:41.499Z,48.30
2018-05-21T03:05:09.690Z,48.30
2018-05-21T03:07:37.902Z,48.20
2018-05-21T03:10:06.120Z,48.20
2018-05-21T03:12:34.317Z,48.10
2018-05-21T03:15:02.536Z,48.20
2018-05-21T03:17:30.731Z,48.10
2018-05-21T03:19:58.946Z,48.10
2018-05-21T03:22:27.135Z,48.10
2018-05-21T03:24:55.331Z,48.10
2018-05-21T03:27:23.528Z,48.10
2018-05-21T03:29:51.719Z,48.10
2018-05-21T03:32:19.931Z,48.20
2018-05-21T03:34:48.138Z,48.00
2018-05-21T03:37:16.336Z,48.00
2018-05-21T03:39:44.535Z,48.00
2018-05-21T03:42:12.732Z,47.90
2018-05-21T03:44:40.934Z,48.00
2018-05-21T03:47:09.912Z,48.00
2018-05-21T03:49:38.094Z,48.00
2018-05-21T03:52:06.287Z,48.00
2018-05-21T03:54:34.480Z,48.00
2018-05-21T03:57:02.715Z,47.90
2018-05-21T03:59:42.712Z,47.80
2018-05-21T04:02:22.803Z,47.70
2018-05-21T04:04:51.002Z,47.70
2018-05-21T04:07:19.198Z,47.80
2018-05-21T04:09:47.391Z,47.60
2018-05-21T04:12:15.590Z,47.50
2018-05-21T04:14:43.799Z,47.40
2018-05-21T04:17:12.026Z,47.40
2018-05-21T04:19:40.242Z,47.10
2018-05-21T04:22:08.446Z,47.10
2018-05-21T04:24:36.647Z,47.00
2018-05-21T04:27:04.863Z,46.90
2018-05-21T04:29:33.059Z,46.90
2018-05-21T04:32:01.271Z,46.70
2018-05-21T04:34:29.488Z,46.60
2018-05-21T04:36:57.702Z,46.50
2018-05-21T04:39:25.980Z,46.50
2018-05-21T04:41:54.256Z,46.30
2018-05-21T04:44:22.515Z,46.20
2018-05-21T04:46:50.751Z,46.00
2018-05-21T04:49:19.127Z,45.90
2018-05-21T04:51:47.322Z,45.70
2018-05-21T04:54:16.592Z,45.60
2018-05-21T04:56:45.136Z,45.60
2018-05-21T04:59:13.335Z,45.60
2018-05-21T05:01:41.576Z,45.50
2018-05-21T05:04:09.798Z,45.70
2018-05-21T05:06:38.014Z,45.70
2018-05-21T05:09:06.237Z,45.70
2018-05-21T05:11:35.254Z,45.80
2018-05-21T05:14:03.463Z,45.70
2018-05-21T05:16:31.695Z,45.80
2018-05-21T05:18:59.894Z,45.80
2018-05-21T05:21:28.102Z,45.80
2018-05-21T05:23:56.316Z,45.70
2018-05-21T05:26:24.516Z,45.80
2018-05-21T05:28:52.746Z,45.80
2018-05-21T05:31:20.952Z,45.70
2018-05-21T05:33:49.200Z,45.70
2018-05-21T05:36:17.386Z,45.70
2018-05-21T05:38:45.593Z,45.60
2018-05-21T05:41:13.803Z,45.60
2018-05-21T05:43:42.023Z,45.50
2018-05-21T05:46:10.260Z,45.60
2018-05-21T05:48:38.482Z,45.60
2018-05-21T05:51:06.736Z,45.60
2018-05-21T05:53:34.938Z,45.60
2018-05-21T05:56:03.146Z,45.60
2018-05-21T05:58:31.491Z,45.50
2018-05-21T06:00:59.957Z,45.60
2018-05-21T06:03:28.458Z,46.10
2018-05-21T06:05:56.655Z,45.50
2018-05-21T06:08:25.787Z,45.50
2018-05-21T06:10:54.033Z,45.40
2018-05-21T06:13:22.242Z,45.80
2018-05-21T06:15:50.475Z,45.20
2018-05-21T06:18:18.686Z,45.30
2018-05-21T06:20:46.891Z,45.00
2018-05-21T06:23:15.162Z,45.10
2018-05-21T06:25:43.428Z,45.00
2018-05-21T06:28:11.653Z,45.10
2018-05-21T06:30:40.774Z,45.10
2018-05-21T06:33:09.002Z,45.00
2018-05-21T06:35:37.387Z,45.00
2018-05-21T06:38:05.667Z,45.10
2018-05-21T06:40:33.947Z,45.10
2018-05-21T06:43:02.217Z,45.10
2018-05-21T06:45:30.507Z,45.00
2018-05-21T06:47:58.876Z,45.10
2018-05-21T06:50:27.974Z,45.10
2018-05-21T06:52:56.379Z,45.00
2018-05-21T06:55:24.784Z,45.10
2018-05-21T06:57:53.031Z,45.10
2018-05-21T07:00:21.227Z,45.10
2018-05-21T07:02:49.517Z,45.10
2018-05-21T07:05:17.744Z,45.10
2018-05-21T07:07:46.062Z,45.10
2018-05-21T07:10:14.256Z,45.10
2018-05-21T07:12:42.454Z,45.10
2018-05-21T07:15:11.455Z,45.30
2018-05-21T07:17:39.691Z,45.20
2018-05-21T07:20:07.887Z,45.30
2018-05-21T07:22:36.895Z,45.60
2018-05-21T07:25:05.876Z,45.60
2018-05-21T07:27:34.098Z,45.50
2018-05-21T07:30:02.364Z,45.60
2018-05-21T07:32:30.575Z,45.60
2018-05-21T07:34:58.794Z,45.60
2018-05-21T07:37:27.006Z,45.70
2018-05-21T07:39:55.215Z,45.70
2018-05-21T07:42:23.429Z,45.70
2018-05-21T07:44:52.418Z,46.00
2018-05-21T07:47:20.603Z,45.90
2018-05-21T07:49:48.816Z,46.10
2018-05-21T07:52:17.042Z,46.30
2018-05-21T07:54:45.239Z,46.20
2018-05-21T07:57:13.437Z,46.30
2018-05-21T07:59:41.659Z,47.00
2018-05-21T08:02:10.774Z,47.10
2018-05-21T08:04:38.979Z,46.40
2018-05-21T08:07:07.180Z,46.70
2018-05-21T08:09:35.378Z,46.60
2018-05-21T08:12:03.627Z,46.60
2018-05-21T08:14:31.843Z,46.70
2018-05-21T08:17:00.047Z,46.90
2018-05-21T08:19:28.259Z,46.70
2018-05-21T08:21:56.467Z,46.90
2018-05-21T08:24:24.687Z,47.00
2018-05-21T08:26:53.321Z,47.00
2018-05-21T08:29:22.392Z,46.80
2018-05-21T08:31:50.603Z,46.90
2018-05-21T08:34:18.811Z,46.80
2018-05-21T08:36:47.810Z,46.80
2018-05-21T08:39:16.027Z,46.70
2018-05-21T08:41:44.236Z,46.90
2018-05-21T08:44:13.213Z,46.90
2018-05-21T08:46:42.203Z,46.90
2018-05-21T08:49:10.614Z,46.80
2018-05-21T08:51:38.859Z,46.80
2018-05-21T08:54:07.048Z,46.80
2018-05-21T08:56:35.268Z,46.80
2018-05-21T08:59:03.447Z,47.10
2018-05-21T09:01:31.684Z,46.80
2018-05-21T09:03:59.891Z,46.70
2018-05-21T09:06:28.112Z,46.70
2018-05-21T09:08:56.319Z,46.70
2018-05-21T09:11:24.526Z,46.70
2018-05-21T09:13:52.738Z,46.70
2018-05-21T09:16:21.774Z,46.60
2018-05-21T09:18:49.946Z,46.70
2018-05-21T09:21:18.200Z,46.60
2018-05-21T09:23:47.239Z,46.80
2018-05-21T09:26:15.402Z,46.60
2018-05-21T09:28:43.661Z,46.70
2018-05-21T09:31:11.848Z,46.70
2018-05-21T09:33:40.067Z,46.60
2018-05-21T09:36:09.047Z,46.60
2018-05-21T09:38:37.242Z,46.60
2018-05-21T09:41:06.216Z,46.60
2018-05-21T09:43:35.195Z,46.60
2018-05-21T09:46:03.406Z,46.70
2018-05-21T09:48:32.354Z,46.60
2018-05-21T09:51:00.562Z,46.60
2018-05-21T09:53:28.778Z,46.70
2018-05-21T09:55:56.980Z,46.60
2018-05-21T09:58:25.178Z,46.70
2018-05-21T10:00:54.949Z,46.70
2018-05-21T10:03:23.153Z,46.70
2018-05-21T10:05:52.114Z,47.30
2018-05-21T10:08:20.315Z,46.50
2018-05-21T10:10:49.285Z,46.70
2018-05-21T10:13:17.483Z,46.60
2018-05-21T10:15:45.679Z,46.60
2018-05-21T10:18:13.874Z,46.70
2018-05-21T10:20:42.097Z,46.70
2018-05-21T10:23:10.361Z,46.70
2018-05-21T10:25:38.552Z,47.20
2018-05-21T10:28:07.539Z,46.60
2018-05-21T10:30:36.520Z,46.80
2018-05-21T10:33:04.710Z,46.70
2018-05-21T10:35:33.030Z,46.70
2018-05-21T10:38:01.223Z,46.60
2018-05-21T10:40:29.431Z,46.60
2018-05-21T10:42:58.399Z,46.70
2018-05-21T10:45:26.605Z,46.60
2018-05-21T10:47:54.798Z,46.50
2018-05-21T10:50:22.999Z,46.50
2018-05-21T10:52:51.211Z,46.50
2018-05-21T10:55:19.433Z,46.50
2018-05-21T10:57:47.612Z,46.40
2018-05-21T11:00:15.845Z,46.40
2018-05-21T11:02:44.038Z,46.30
2018-05-21T11:05:12.242Z,46.40
2018-05-21T11:07:40.459Z,46.50
2018-05-21T11:10:08.658Z,46.50
2018-05-21T11:12:36.854Z,46.50
2018-05-21T11:15:05.055Z,46.50
2018-05-21T11:17:33.263Z,46.40
2018-05-21T11:20:02.527Z,46.50
2018-05-21T11:22:30.734Z,46.40
2018-05-21T11:24:58.931Z,46.20
2018-05-21T11:27:27.146Z,46.40
2018-05-21T11:29:55.360Z,46.30
2018-05-21T11:32:23.567Z,46.20
2018-05-21T11:34:51.803Z,46.30
2018-05-21T11:37:20.777Z,46.40
2018-05-21T11:39:48.987Z,46.40
2018-05-21T11:42:17.187Z,46.20
2018-05-21T11:44:45.398Z,46.30
2018-05-21T11:47:13.596Z,46.30
2018-05-21T11:49:41.840Z,46.30
2018-05-21T11:52:10.050Z,46.10
2018-05-21T11:54:38.258Z,46.20
2018-05-21T11:57:06.478Z,46.20
2018-05-21T11:59:35.463Z,46.40
2018-05-21T12:02:03.743Z,46.30
2018-05-21T12:04:31.876Z,46.30
2018-05-21T12:07:00.121Z,46.30
2018-05-21T12:09:28.354Z,46.30
2018-05-21T12:11:56.606Z,46.10
2018-05-21T12:14:24.811Z,46.10
2018-05-21T12:16:53.011Z,46.00
2018-05-21T12:19:21.227Z,46.00
2018-05-21T12:21:49.427Z,45.90
2018-05-21T12:24:17.618Z,45.80
2018-05-21T12:26:45.820Z,46.10
2018-05-21T12:29:14.023Z,45.90
2018-05-21T12:31:42.266Z,46.50
2018-05-21T12:34:10.506Z,45.70
2018-05-21T12:36:39.475Z,45.90
2018-05-21T12:39:07.691Z,45.90
2018-05-21T12:41:35.882Z,45.70
2018-05-21T12:44:04.111Z,45.60
2018-05-21T12:46:32.416Z,46.10
2018-05-21T12:49:00.618Z,45.90
2018-05-21T12:51:28.814Z,45.80
2018-05-21T12:53:57.028Z,46.00
2018-05-21T12:56:25.232Z,45.90
2018-05-21T12:58:53.439Z,45.70
2018-05-21T13:01:21.749Z,45.80
2018-05-21T13:03:49.935Z,45.80
2018-05-21T13:06:18.148Z,46.80
2018-05-21T13:08:46.387Z,45.70
2018-05-21T13:11:14.569Z,45.90
2018-05-21T13:13:42.771Z,45.90
2018-05-21T13:16:10.972Z,46.00
2018-05-21T13:18:39.370Z,46.00
2018-05-21T13:21:07.559Z,46.00
2018-05-21T13:23:35.763Z,45.90
2018-05-21T13:26:03.967Z,46.10
2018-05-21T13:28:32.942Z,46.20
2018-05-21T13:31:01.147Z,46.10
2018-05-21T13:33:29.339Z,46.20
2018-05-21T13:35:57.543Z,46.00
2018-05-21T13:38:25.738Z,46.10
2018-05-21T13:40:53.956Z,46.20
2018-05-21T13:43:22.150Z,46.30
2018-05-21T13:45:50.350Z,47.00
2018-05-21T13:48:18.796Z,46.50
2018-05-21T13:50:47.003Z,46.60
2018-05-21T13:53:15.203Z,46.50
2018-05-21T13:55:44.190Z,46.50
2018-05-21T13:58:13.162Z,46.50
2018-05-21T14:00:41.371Z,46.50
2018-05-21T14:03:09.600Z,46.40
2018-05-21T14:05:37.838Z,46.30
2018-05-21T14:08:06.064Z,46.30
2018-05-21T14:10:34.267Z,45.10
2018-05-21T14:13:02.475Z,46.20
2018-05-21T14:15:30.679Z,46.10
2018-05-21T14:17:58.885Z,46.00
2018-05-21T14:20:27.861Z,46.00
2018-05-21T14:22:56.063Z,46.10
2018-05-21T14:25:24.321Z,46.20
2018-05-21T14:27:52.482Z,46.20
2018-05-21T14:30:20.695Z,46.30
2018-05-21T14:32:48.891Z,46.30
2018-05-21T14:35:17.103Z,46.20
2018-05-21T14:37:45.310Z,46.30
2018-05-21T14:40:13.514Z,46.30
2018-05-21T14:42:41.726Z,46.30
2018-05-21T14:45:10.693Z,46.30
2018-05-21T14:47:38.891Z,46.30
2018-05-21T14:50:07.859Z,46.30
2018-05-21T14:52:36.156Z,46.30
2018-05-21T14:55:04.392Z,46.40
2018-05-21T14:57:32.531Z,46.40
2018-05-21T15:00:00.841Z,46.40
2018-05-21T15:02:29.031Z,46.40
2018-05-21T15:04:57.227Z,46.50
2018-05-21T15:07:25.498Z,46.50
2018-05-21T15:09:53.660Z,46.50
2018-05-21T15:12:21.873Z,46.50
2018-05-21T15:14:50.078Z,47.00
2018-05-21T15:17:18.298Z,46.40
2018-05-21T15:19:46.493Z,46.50
2018-05-21T15:22:14.752Z,46.50
2018-05-21T15:24:42.918Z,46.40
2018-05-21T15:27:11.891Z,46.60
2018-05-21T15:29:40.107Z,46.40
2018-05-21T15:32:08.319Z,46.50
2018-05-21T15:34:36.507Z,46.60
2018-05-21T15:37:04.710Z,46.60
2018-05-21T15:39:32.902Z,46.70
2018-05-21T15:42:01.095Z,46.70
2018-05-21T15:44:29.291Z,46.70
2018-05-21T15:46:57.499Z,46.70
2018-05-21T15:49:26.482Z,46.70
2018-05-21T15:51:54.682Z,47.30
2018-05-21T15:54:22.880Z,47.30
2018-05-21T15:56:51.103Z,46.60
2018-05-21T15:59:19.291Z,46.60
2018-05-21T16:01:47.486Z,46.70
2018-05-21T16:04:15.899Z,46.70
2018-05-21T16:06:44.107Z,46.70
2018-05-21T16:09:12.363Z,46.70
2018-05-21T16:11:40.518Z,46.70
2018-05-21T16:14:08.831Z,46.60
2018-05-21T16:16:37.832Z,46.60
2018-05-21T16:19:06.794Z,46.60
2018-05-21T16:21:35.001Z,46.50
2018-05-21T16:24:03.202Z,46.50
2018-05-21T16:26:31.390Z,46.60
2018-05-21T16:28:59.608Z,46.60
2018-05-21T16:31:27.826Z,46.60
2018-05-21T16:33:56.031Z,46.60
2018-05-21T16:36:24.226Z,46.60
2018-05-21T16:38:52.422Z,46.60
2018-05-21T16:41:20.701Z,46.50
2018-05-21T16:43:48.845Z,46.50
2018-05-21T16:46:17.043Z,46.50
2018-05-21T16:48:45.295Z,46.50
2018-05-21T16:51:13.491Z,45.40
2018-05-21T16:53:41.722Z,46.50
2018-05-21T16:56:09.924Z,46.50
2018-05-21T16:58:38.285Z,46.50
2018-05-21T17:01:06.487Z,46.40
2018-05-21T17:03:34.687Z,46.40
2018-05-21T17:06:02.927Z,46.40
2018-05-21T17:08:31.130Z,46.40
2018-05-21T17:10:59.318Z,46.70
2018-05-21T17:13:27.648Z,46.30
2018-05-21T17:15:56.617Z,46.30
2018-05-21T17:18:24.822Z,46.20
2018-05-21T17:20:53.032Z,46.20
2018-05-21T17:23:21.232Z,46.30
2018-05-21T17:25:49.431Z,46.20
2018-05-21T17:28:18.409Z,46.40
2018-05-21T17:30:46.622Z,46.40
2018-05-21T17:33:14.849Z,46.40
2018-05-21T17:35:43.025Z,46.40
2018-05-21T17:38:11.219Z,46.60
2018-05-21T17:40:39.427Z,46.60
2018-05-21T17:43:07.639Z,46.60
2018-05-21T17:45:35.842Z,46.60
2018-05-21T17:48:04.805Z,46.70
2018-05-21T17:50:33.015Z,46.70
2018-05-21T17:53:01.210Z,46.70
2018-05-21T17:55:29.468Z,46.80
2018-05-21T17:57:57.669Z,46.90
2018-05-21T18:00:25.878Z,47.00
2018-05-21T18:02:54.074Z,47.00
2018-05-21T18:05:22.281Z,47.10
2018-05-21T18:07:50.497Z,47.10
2018-05-21T18:10:18.783Z,47.10
2018-05-21T18:12:46.975Z,47.20
2018-05-21T18:15:15.166Z,47.10
2018-05-21T18:17:43.375Z,47.30
2018-05-21T18:20:11.575Z,47.40
2018-05-21T18:22:40.610Z,47.50
2018-05-21T18:25:08.807Z,47.50
2018-05-21T18:27:37.027Z,47.50
2018-05-21T18:30:05.234Z,47.50
2018-05-21T18:32:33.431Z,47.60
2018-05-21T18:35:01.638Z,47.50
2018-05-21T18:37:30.611Z,48.30
2018-05-21T18:39:58.816Z,47.60
2018-05-21T18:42:27.796Z,47.70
2018-05-21T18:44:55.982Z,47.60
2018-05-21T18:47:24.268Z,47.70
2018-05-21T18:49:52.426Z,47.80
2018-05-21T18:52:20.674Z,47.80
2018-05-21T18:54:48.867Z,47.90
2018-05-21T18:57:17.066Z,47.90
2018-05-21T18:59:45.280Z,47.90
2018-05-21T19:02:13.491Z,47.90
2018-05-21T19:04:42.495Z,48.00
2018-05-21T19:07:10.678Z,48.00
2018-05-21T19:09:38.923Z,48.10
2018-05-21T19:12:07.153Z,48.10
2018-05-21T19:14:35.394Z,48.00
2018-05-21T19:17:03.592Z,48.00
2018-05-21T19:19:31.808Z,47.90
2018-05-21T19:22:00.020Z,47.90
2018-05-21T19:24:28.210Z,48.00
2018-05-21T19:26:56.412Z,48.10
2018-05-21T19:29:24.610Z,48.10
2018-05-21T19:31:52.814Z,48.10
2018-05-21T19:34:21.015Z,48.20
2018-05-21T19:36:49.227Z,48.10
2018-05-21T19:39:17.434Z,48.10
2018-05-21T19:41:45.622Z,48.10
2018-05-21T19:44:13.817Z,48.20
2018-05-21T19:46:42.041Z,48.30
2018-05-21T19:49:11.008Z,48.40
2018-05-21T19:51:39.225Z,48.30
2018-05-21T19:54:07.416Z,48.30
2018-05-21T19:56:35.627Z,48.30
2018-05-21T19:59:04.367Z,48.40
2018-05-21T20:01:32.555Z,48.50
2018-05-21T20:04:00.759Z,48.40
2018-05-21T20:06:28.971Z,48.50
2018-05-21T20:08:57.192Z,48.40
2018-05-21T20:11:25.493Z,48.40
2018-05-21T20:13:53.694Z,48.40
2018-05-21T20:16:21.937Z,48.30
2018-05-21T20:18:50.119Z,48.30
2018-05-21T20:21:19.111Z,48.60
2018-05-21T20:23:48.101Z,49.00
2018-05-21T20:26:16.291Z,48.30
2018-05-21T20:28:45.263Z,48.30
2018-05-21T20:31:13.458Z,48.40
2018-05-21T20:33:41.655Z,48.30
2018-05-21T20:36:09.988Z,48.30
2018-05-21T20:38:38.187Z,48.40
2018-05-21T20:41:06.380Z,48.40
2018-05-21T20:43:34.571Z,48.40
2018-05-21T20:46:02.818Z,48.40
2018-05-21T20:48:31.031Z,48.40
2018-05-21T20:50:59.241Z,48.30
2018-05-21T20:53:27.446Z,48.40
2018-05-21T20:55:55.651Z,48.40
2018-05-21T20:58:23.872Z,48.30
2018-05-21T21:00:52.079Z,48.40
2018-05-21T21:03:20.278Z,48.30
2018-05-21T21:05:48.483Z,48.30
2018-05-21T21:08:16.699Z,48.20
2018-05-21T21:10:44.925Z,48.30
2018-05-21T21:13:13.115Z,48.30
2018-05-21T21:15:41.335Z,48.30
2018-05-21T21:18:09.537Z,48.30
2018-05-21T21:20:37.742Z,48.20
2018-05-21T21:23:05.939Z,48.20
2018-05-21T21:25:34.159Z,48.30
2018-05-21T21:28:02.546Z,48.20
2018-05-21T21:30:30.731Z,48.20
2018-05-21T21:32:58.966Z,48.20
2018-05-21T21:35:27.132Z,48.20
2018-05-21T21:37:55.329Z,48.10
2018-05-21T21:40:23.592Z,48.10
2018-05-21T21:42:51.790Z,48.00
2018-05-21T21:45:19.998Z,48.10
2018-05-21T21:47:48.201Z,48.10
2018-05-21T21:50:16.402Z,48.20
2018-05-21T21:52:44.595Z,48.10
2018-05-21T21:55:12.790Z,48.20
2018-05-21T21:57:41.172Z,48.20
2018-05-21T22:00:09.330Z,48.20
2018-05-21T22:02:37.531Z,48.20
2018-05-21T22:05:05.730Z,48.20
2018-05-21T22:07:33.930Z,48.90
2018-05-21T22:10:02.905Z,48.30
2018-05-21T22:12:31.114Z,48.30
2018-05-21T22:14:59.446Z,48.30
2018-05-21T22:17:27.646Z,48.30
2018-05-21T22:19:55.848Z,48.30
2018-05-21T22:22:24.046Z,48.30
2018-05-21T22:24:52.353Z,48.30
2018-05-21T22:27:20.538Z,48.30
2018-05-21T22:29:48.734Z,48.20
2018-05-21T22:32:16.929Z,48.30
2018-05-21T22:34:45.210Z,48.30
2018-05-21T22:37:13.415Z,48.30
2018-05-21T22:39:41.622Z,48.30
2018-05-21T22:42:09.852Z,48.30
2018-05-21T22:44:41.950Z,48.40
2018-05-21T22:47:10.142Z,48.50
2018-05-21T22:49:38.354Z,48.50
2018-05-21T22:52:06.554Z,48.60
2018-05-21T22:54:36.570Z,48.60
2018-05-21T22:57:04.769Z,48.50
2018-05-21T22:59:32.977Z,48.50
2018-05-21T23:02:01.180Z,48.50
2018-05-21T23:04:29.386Z,48.40
2018-05-21T23:06:57.583Z,48.40
2018-05-21T23:09:25.797Z,48.40
2018-05-21T23:11:54.026Z,48.40
2018-05-21T23:14:22.241Z,48.40
2018-05-21T23:16:50.426Z,48.50
2018-05-21T23:19:18.622Z,48.50
2018-05-21T23:21:46.819Z,48.50
2018-05-21T23:24:15.020Z,48.50
2018-05-21T23:26:43.226Z,48.50
2018-05-21T23:29:11.442Z,48.40
2018-05-21T23:31:39.634Z,48.40
2018-05-21T23:34:07.843Z,48.40
2018-05-21T23:36:36.207Z,48.50
2018-05-21T23:39:05.103Z,48.40
2018-05-21T23:41:33.298Z,48.40
2018-05-21T23:44:01.650Z,48.30
2018-05-21T23:46:29.863Z,48.40
2018-05-21T23:48:58.054Z,48.30
2018-05-21T23:51:26.266Z,48.40
2018-05-21T23:53:54.467Z,48.40
2018-05-21T23:56:22.739Z,48.30
2018-05-21T23:58:50.923Z,48.40
